AirNav   TITAN Aviation Fuels
 
 1401 users online  

KWEA Parker County Airport
Weatherford, Texas, USA

GOING TO WEATHERFORD?


FAA INFORMATION EFFECTIVE 23 MARCH 2023

Location

FAA Identifier: WEA
Lat/Long: 32-44-46.6321N 097-40-56.8279W
32-44.777202N 097-40.947132W
32.7462867,-97.6824522
(estimated)
Elevation: 991.2 ft. / 302.1 m (surveyed)
Variation: 05E (2010)
From city: 5 miles E of WEATHERFORD, TX
Time zone: UTC -5 (UTC -6 during Standard Time)
Zip code: 76087

Airport Operations

Airport use: Open to the public
Activation date: 01/1961
Control tower: no
ARTCC: FORT WORTH CENTER
FSS: FORT WORTH FLIGHT SERVICE STATION
NOTAMs facility: FTW (NOTAM-D service available)
Attendance: 0800-1800
Wind indicator: lighted
Segmented circle: no
Lights: SS-SR

Airport Communications

CTAF/UNICOM: 122.7
REGIONAL APPROACH: 135.975
REGIONAL DEPARTURE: 135.975
DODJE STAR: 125.2 125.9
GARLAND DP: 125.8
LIKES STAR: 125.8 ;SOUTH 135.975 ;NORTH
MOTZA STAR: 118.1 ;SOUTH 125.8 ;NORTH
REEKO STAR: 125.2
SASIE STAR: 124.3
TRUUK RNAV STAR: 118.1
WESAT STAR: 118.1 ;SOUTH 125.8 ;NORTH
WX ASOS at FTW (17 nm E): PHONE 817-740-3346
WX ASOS at MWL (19 nm W): 135.075 (940-325-2457)
WX AWOS-3PT at GDJ (20 nm S): 118.925 (817-573-7514)

Nearby radio navigation aids

VOR radial/distance  VOR name  Freq  Var
MQPr077/15.9MILLSAP VORTAC117.7009E
FUZr245/26.8RANGER VORTAC115.7006E
TTTr251/33.2MAVERICK VOR/DME113.1006E

Airport Services

Fuel available: 100LL
100LL:FUEL 24 HRS SELF SERVE.
Parking: hangars and tiedowns
Bottled oxygen: NONE
Bulk oxygen: NONE

Runway Information

Runway 17/35

Dimensions: 2892 x 40 ft. / 881 x 12 m
Surface: asphalt, in good condition
Weight bearing capacity: 
Single wheel: 7.5
Runway edge lights: low intensity
NSTD DSPLCD THR LGTS, SINGLE GREEN LGT EACH SIDE OF RWY.
Operational restrictions: RESTRICTED TO ACFT 7500 LBS OR LESS.
RUNWAY 17  RUNWAY 35
Latitude: 32-45.015632N32-44.538772N
Longitude: 097-40.945290W097-40.948973W
Elevation: 988.6 ft.982.6 ft.
Traffic pattern: leftleft
Runway heading: 175 magnetic, 180 true355 magnetic, 000 true
Displaced threshold: 220 ft.no
Markings: basic, in good conditionbasic, in good condition
Touchdown point: yes, no lightsyes, no lights
Obstructions: 40 ft. tree, 526 ft. from runway, 44 ft. left of centerline, 8:1 slope to clear
5 FT FENCE 40 FT FM THR 120 FT R OF CNTRLN; 20 FT DROP-OFF 10 FT FROM THR 0B.
40 ft. trees, 400 ft. from runway, 125 ft. right of centerline, 5:1 slope to clear
APCH SLOPE 20:1 AT DSPLCD THR.

Airport Ownership and Management from official FAA records

Ownership: Privately-owned
Owner: PARKER COUNTY AIRPORT HANGARS ASSOC
4607 FOREST HILL CIRCLE
FORT WORTH, TX 76140
Phone 817-599-9210
Manager: BRET PRIVITT
4607 FOREST HILL CIRCLE
FORT WORTH, TX 76140
Phone (817) 822-7205

Airport Operational Statistics

Aircraft based on the field: 86
Single engine airplanes: 80
Multi engine airplanes: 6
    
Aircraft operations: avg 137/day *
75% local general aviation
25% transient general aviation
<1% military
* for 12-month period ending 21 September 2022

Additional Remarks

FOR CD CTC REGIONAL APCH AT 972-615-2799.
WILDLIFE ON AND INVOF APRT.
TWY ON WEST SIDE OF RWY CLSD TO PUBLIC INDEFLY.
ARPT CLSD TO TRANSIENT STUDENT TFC.
CLOSED TO ULTRALIGHT TRAFFIC.

Instrument Procedures

NOTE: All procedures below are presented as PDF files. If you need a reader for these files, you should download the free Adobe Reader.

NOT FOR NAVIGATION. Please procure official charts for flight.
FAA instrument procedures published for use from 23 March 2023 at 0901Z to 20 April 2023 at 0900Z.

 
STARs - Standard Terminal Arrivals
LIKES THREE (RNAV)   download (203KB)
MOTZA ONE   2 pages: [1] [2] (478KB)
REEKO THREE (RNAV)   download (208KB)
SASIE SEVEN   2 pages: [1] [2] (495KB)
TRUUK TWO (RNAV)   download (215KB)
WESAT TWO (RNAV)   download (203KB)
 
IAPs - Instrument Approach Procedures
VOR/DME-A   download (155KB)
 
Departure Procedures
GARLAND FOUR   2 pages: [1] [2] (335KB)
KINGDOM THREE   2 pages: [1] [2] (357KB)
KUSSO ONE (RNAV)   2 pages: [1] [2] (310KB)
SWABR ONE (RNAV)   2 pages: [1] [2] (310KB)
NOTE: Special Take-Off Minimums/Departure Procedures apply   download (113KB)

Other nearby airports with instrument procedures:

50F - Bourland Field Airport (11 nm SE)
KNFW - Fort Worth Naval Air Station JRB (Carswell Field) Airport (12 nm E)
KFTW - Fort Worth Meacham International Airport (17 nm E)
4T2 - Kenneth Copeland Airport (17 nm NE)
KMWL - Mineral Wells Regional Airport (19 nm W)
KGDJ - Granbury Regional Airport (20 nm S)
 
Loc | Ops | Rwys | IFR | FBO | Links
Com | Nav | Svcs | Stats | Notes

City of Fort Worth
 
Area around KWEA (Parker County Airport)
 
Road maps at: MapQuest Bing Google
 
Aerial photo
WARNING: Photo may not be current or correct
Aerial photo of KWEA (Parker County Airport)
Photo by Kim Fuller
Photo taken 06-Apr-2017
looking south.

Do you have a better or more recent aerial photo of Parker County Airport that you would like to share? If so, please send us your photo.

 
Sectional chart

 
Airport distance calculator
Flying to Parker County Airport? Find the distance to fly.

From to KWEA

Sunrise and sunset
Times for 23-Mar-2023
 Local
(UTC-5)
 Zulu
(UTC)
Morning civil twilight07:0712:07
Sunrise07:3212:32
Sunset19:4300:43
Evening civil twilight20:0801:08

Current date and time
Zulu (UTC)  23-Mar-2023 20:55:41
Local (UTC-5)  23-Mar-2023 15:55:41
 
METAR
KNFW 
12nm E 
231952Z 17017G26KT 10SM FEW048 BKN065 27/18 A2986 RMK AO2 PK WND 20029/1904 SLP096 T02720178 CHINO S VISNO S $
KFTW 
17nm E 
231953Z 17015G30KT 10SM SCT044 BKN050 BKN065 27/18 A2985 RMK AO2 PK WND 17030/1949 SLP102 T02670183
KGDJ 
19nm S 
AWOS-3 118.925 817-573-7514
232035Z AUTO 18017G22KT 10SM SCT050 OVC070 27/17 A2986 RMK AO2 T02720165
KMWL 
20nm W 
231953Z AUTO 17013G23KT 10SM SCT055 BKN070 29/15 A2983 RMK AO2 PK WND 16028/1936 SLP088 T02890150
KFWS 
22nm SE 
231949Z 17015G20KT 10SM BKN043 27/17 A2989
KAFW 
23nm NE 
231953Z 18017G30KT 10SM SCT047 BKN060 BKN250 27/17 A2985 RMK AO2 PK WND 17030/1949 SLP098 T02720172
TAF
KNFW 
12nm E 
2315/2415 17015G25KT 9999 SCT018 OVC040 QNH2990INS FM231800 18024G32KT 9999 FEW025 SCT028 OVC050 QNH2972INS FM240300 18015G22KT 9999 FEW015 SCT022 OVC030 QNH2970INS BECMG 2407/2409 23012G18KT 9000 -SHRA VCTS BKN012CB OVC018 QNH2965INS TEMPO 2410/2414 VRB20G25KT 4800 TSRA BR BKN008CB OVC014 TX28/2321Z TN16/2412Z FN20046
KFTW 
17nm E 
231730Z 2318/2418 18018G28KT P6SM BKN040 FM240500 18019G30KT P6SM BKN017 FM240900 19018G28KT P6SM VCTS BKN015CB TEMPO 2410/2413 28020G35KT TSRA BKN015CB FM241300 22012KT P6SM VCTS OVC018CB FM241500 30009KT P6SM BKN022 FM241700 25015KT P6SM SCT180
NOTAMs
Click for the latest NOTAMs
NOTAMs are issued by the DoD/FAA and will open in a separate window not controlled by AirNav.

 

 
 

FBO, Fuel Providers, and Aircraft Ground Support

  
 Business Name 
 
 Contact 
 
 Services / Description 
 
Fuel Prices
 
Comments
  
Chief Aero, LLC 817-599-9210
682-249-1755
[web site]
[email]
Airport management, Aviation fuel, Aircraft parking (ramp or tiedown), Hangars, Hangar leasing / sales, Pilots lounge / snooze room, Restrooms

More info about Chief Aero, LLC
Titan
100LL
SS $5.75 
 Updated 10-Mar-2023
 
   write
SS=Self service
Update Fuel Prices
 

Would you like to see your business listed on this page?

 If your business provides an interesting product or service to pilots, flight crews, aircraft, or users of the Parker County Airport, you should consider listing it here.  To start the listing process, click on the button below
 
Add a business
 

Other Pages about Parker County Airport

www.parkercountyairport.com
 
Update a link
 
Copyright © AirNav, LLC. All rights reserved. Privacy Policy  Contact